SWA986 KBUR-KPHX
Flight info
| Callsign | SWA986 |
|---|---|
| Flight time | 0h 57m |
| Altitude | 37000 |
| Route | SLAPP2 BLH HYDRR1 |
| Aircraft | B737/M-SDE2E3FGHIRWXY/LB1 |
Departure
| Time | 2026-04-30 18:47 |
|---|---|
| Airport | Hollywood Burbank/Bob Hope Airport (KBUR) |
Arrival
| Time | 2026-04-30 19:45 |
|---|---|
| Airport | Phoenix Sky Harbor International Airport (KPHX) |
| Time | Latitude | Longitude | Altitude | Speed | Heading |
|---|---|---|---|---|---|
| 2026-04-30 18:31 | 34.19667 | -118.35016 | 694 ft | 0 kts | 181° |
| 2026-04-30 18:40 | 34.19669 | -118.35016 | 687 ft | 2 kts | 181° |
| 2026-04-30 18:40 | 34.19694 | -118.35012 | 694 ft | 4 kts | 205° |
| 2026-04-30 18:40 | 34.19713 | -118.34994 | 687 ft | 4 kts | 252° |
| 2026-04-30 18:40 | 34.19716 | -118.34976 | 695 ft | 1 kts | 270° |
| 2026-04-30 18:41 | 34.19716 | -118.34974 | 695 ft | 0 kts | 270° |
| 2026-04-30 18:45 | 34.20280 | -118.35648 | 716 ft | 23 kts | 347° |
| 2026-04-30 18:45 | 34.20434 | -118.35690 | 720 ft | 22 kts | 347° |
| 2026-04-30 18:45 | 34.20591 | -118.35734 | 725 ft | 27 kts | 347° |
| 2026-04-30 18:46 | 34.20779 | -118.35785 | 739 ft | 27 kts | 347° |
| 2026-04-30 18:46 | 34.20955 | -118.35832 | 751 ft | 25 kts | 348° |
| 2026-04-30 18:46 | 34.21117 | -118.35880 | 766 ft | 23 kts | 342° |
| 2026-04-30 18:46 | 34.21209 | -118.36019 | 773 ft | 21 kts | 253° |
| 2026-04-30 18:47 | 34.21134 | -118.36020 | 770 ft | 12 kts | 166° |
| 2026-04-30 18:47 | 34.20751 | -118.35914 | 741 ft | 102 kts | 167° |
| 2026-04-30 18:47 | 34.19808 | -118.35664 | 738 ft | 172 kts | 167° |
| 2026-04-30 18:47 | 34.18537 | -118.35361 | 1435 ft | 190 kts | 171° |
| 2026-04-30 18:48 | 34.17295 | -118.35106 | 2761 ft | 175 kts | 171° |
| 2026-04-30 18:48 | 34.16074 | -118.35301 | 3552 ft | 191 kts | 208° |
| 2026-04-30 18:48 | 34.15098 | -118.36539 | 3862 ft | 224 kts | 249° |
| 2026-04-30 18:48 | 34.15010 | -118.38466 | 4206 ft | 243 kts | 292° |
| 2026-04-30 18:49 | 34.16014 | -118.40157 | 4627 ft | 260 kts | 329° |
| 2026-04-30 18:49 | 34.17724 | -118.40769 | 5432 ft | 263 kts | 5° |
| 2026-04-30 18:49 | 34.19533 | -118.40408 | 6482 ft | 265 kts | 14° |
| 2026-04-30 18:49 | 34.21355 | -118.39941 | 7476 ft | 271 kts | 14° |
| 2026-04-30 18:50 | 34.23234 | -118.39500 | 8470 ft | 275 kts | 12° |
| 2026-04-30 18:50 | 34.25113 | -118.39102 | 9617 ft | 276 kts | 12° |
| 2026-04-30 18:50 | 34.27040 | -118.38727 | 10447 ft | 288 kts | 11° |
| 2026-04-30 18:50 | 34.29091 | -118.38349 | 10736 ft | 317 kts | 10° |
| 2026-04-30 18:51 | 34.31339 | -118.37956 | 11287 ft | 333 kts | 9° |
| 2026-04-30 18:51 | 34.33687 | -118.37559 | 12138 ft | 339 kts | 8° |
| 2026-04-30 18:51 | 34.36007 | -118.37171 | 13101 ft | 342 kts | 8° |
| 2026-04-30 18:51 | 34.38376 | -118.36730 | 14017 ft | 346 kts | 12° |
| 2026-04-30 18:52 | 34.40685 | -118.35864 | 14924 ft | 347 kts | 20° |
| 2026-04-30 18:52 | 34.42933 | -118.34802 | 15888 ft | 348 kts | 21° |
| 2026-04-30 18:52 | 34.45199 | -118.33703 | 16665 ft | 353 kts | 24° |
| 2026-04-30 18:52 | 34.47348 | -118.32235 | 17573 ft | 355 kts | 33° |
| 2026-04-30 18:53 | 34.49314 | -118.30378 | 18354 ft | 361 kts | 38° |
| 2026-04-30 18:53 | 34.51250 | -118.28417 | 18815 ft | 363 kts | 38° |
| 2026-04-30 18:53 | 34.53192 | -118.26431 | 18989 ft | 368 kts | 39° |
| 2026-04-30 18:53 | 34.55164 | -118.24425 | 18992 ft | 369 kts | 38° |
| 2026-04-30 18:54 | 34.57123 | -118.22446 | 18995 ft | 365 kts | 38° |
| 2026-04-30 18:54 | 34.59053 | -118.20505 | 18991 ft | 365 kts | 38° |
| 2026-04-30 18:54 | 34.61010 | -118.18541 | 19003 ft | 364 kts | 38° |
| 2026-04-30 18:54 | 34.62971 | -118.16574 | 19006 ft | 364 kts | 38° |
| 2026-04-30 18:55 | 34.64837 | -118.14495 | 18994 ft | 366 kts | 48° |
| 2026-04-30 18:55 | 34.67230 | -118.09021 | 19013 ft | 374 kts | 72° |
| 2026-04-30 18:55 | 34.67772 | -118.05922 | 19039 ft | 376 kts | 76° |
| 2026-04-30 18:56 | 34.68637 | -117.99649 | 19007 ft | 381 kts | 85° |
| 2026-04-30 18:56 | 34.68446 | -117.96418 | 19033 ft | 386 kts | 97° |
| 2026-04-30 18:56 | 34.67703 | -117.93238 | 19452 ft | 397 kts | 109° |
| 2026-04-30 18:57 | 34.65367 | -117.87177 | 21037 ft | 400 kts | 113° |
| 2026-04-30 18:57 | 34.64130 | -117.84128 | 21731 ft | 404 kts | 113° |
| 2026-04-30 18:57 | 34.62883 | -117.81045 | 22373 ft | 409 kts | 113° |
| 2026-04-30 18:58 | 34.60379 | -117.74776 | 23698 ft | 415 kts | 112° |
| 2026-04-30 18:58 | 34.59549 | -117.72683 | 24112 ft | 416 kts | 112° |
| 2026-04-30 18:58 | 34.58290 | -117.69495 | 24637 ft | 421 kts | 112° |
| 2026-04-30 18:59 | 34.55738 | -117.63019 | 25623 ft | 430 kts | 112° |
| 2026-04-30 19:00 | 34.51807 | -117.53068 | 27128 ft | 441 kts | 112° |
| 2026-04-30 19:00 | 34.50468 | -117.49686 | 27576 ft | 446 kts | 112° |
| 2026-04-30 19:00 | 34.47779 | -117.42906 | 28551 ft | 452 kts | 112° |
| 2026-04-30 19:01 | 34.45030 | -117.35985 | 29393 ft | 458 kts | 111° |
| 2026-04-30 19:01 | 34.43643 | -117.32500 | 29794 ft | 462 kts | 111° |
| 2026-04-30 19:02 | 34.40823 | -117.25426 | 30509 ft | 469 kts | 112° |
| 2026-04-30 19:02 | 34.37968 | -117.18280 | 31164 ft | 474 kts | 112° |
| 2026-04-30 19:03 | 34.35086 | -117.11082 | 32020 ft | 474 kts | 112° |
| 2026-04-30 19:03 | 34.32224 | -117.03934 | 33024 ft | 469 kts | 110° |
| 2026-04-30 19:04 | 34.29827 | -116.96649 | 33808 ft | 466 kts | 105° |
| 2026-04-30 19:04 | 34.27647 | -116.89324 | 34458 ft | 466 kts | 105° |
| 2026-04-30 19:05 | 34.25438 | -116.81982 | 35208 ft | 462 kts | 106° |
| 2026-04-30 19:05 | 34.23203 | -116.74702 | 35804 ft | 462 kts | 107° |
| 2026-04-30 19:06 | 34.20957 | -116.67460 | 36334 ft | 462 kts | 107° |
| 2026-04-30 19:06 | 34.19825 | -116.63827 | 36665 ft | 461 kts | 107° |
| 2026-04-30 19:06 | 34.17565 | -116.56569 | 36885 ft | 464 kts | 107° |
| 2026-04-30 19:07 | 34.14167 | -116.45691 | 36903 ft | 459 kts | 107° |
| 2026-04-30 19:08 | 34.09655 | -116.31308 | 36883 ft | 455 kts | 107° |
| 2026-04-30 19:09 | 34.06291 | -116.20620 | 36934 ft | 453 kts | 108° |
| 2026-04-30 19:09 | 34.04063 | -116.13564 | 36938 ft | 452 kts | 108° |
| 2026-04-30 19:10 | 33.99580 | -115.99415 | 36903 ft | 451 kts | 108° |
| 2026-04-30 19:11 | 33.96208 | -115.88815 | 36875 ft | 452 kts | 109° |
| 2026-04-30 19:12 | 33.93952 | -115.81744 | 36884 ft | 453 kts | 109° |
| 2026-04-30 19:12 | 33.91684 | -115.74657 | 36886 ft | 455 kts | 110° |
| 2026-04-30 19:13 | 33.87125 | -115.60444 | 36856 ft | 459 kts | 111° |
| 2026-04-30 19:14 | 33.84806 | -115.53246 | 36870 ft | 462 kts | 111° |
| 2026-04-30 19:14 | 33.82473 | -115.46015 | 36872 ft | 465 kts | 111° |
| 2026-04-30 19:15 | 33.80123 | -115.38766 | 36843 ft | 466 kts | 111° |
| 2026-04-30 19:15 | 33.76579 | -115.27868 | 36860 ft | 466 kts | 113° |
| 2026-04-30 19:16 | 33.74217 | -115.20617 | 36849 ft | 466 kts | 113° |
| 2026-04-30 19:17 | 33.70680 | -115.09783 | 36853 ft | 466 kts | 113° |
| 2026-04-30 19:17 | 33.67113 | -114.98902 | 36831 ft | 466 kts | 114° |
| 2026-04-30 19:18 | 33.63550 | -114.88070 | 36849 ft | 465 kts | 114° |
| 2026-04-30 19:19 | 33.61150 | -114.80798 | 36207 ft | 473 kts | 115° |
| 2026-04-30 19:19 | 33.59945 | -114.77150 | 35635 ft | 470 kts | 115° |
| 2026-04-30 19:19 | 33.58070 | -114.69591 | 34265 ft | 475 kts | 105° |
| 2026-04-30 19:20 | 33.57372 | -114.65706 | 33430 ft | 478 kts | 104° |
| 2026-04-30 19:20 | 33.56700 | -114.61809 | 32832 ft | 474 kts | 104° |
| 2026-04-30 19:20 | 33.55332 | -114.54202 | 31730 ft | 464 kts | 104° |
| 2026-04-30 19:21 | 33.54621 | -114.50456 | 31206 ft | 457 kts | 104° |
| 2026-04-30 19:21 | 33.53185 | -114.43104 | 30188 ft | 448 kts | 104° |
| 2026-04-30 19:22 | 33.51774 | -114.35970 | 29054 ft | 438 kts | 104° |
| 2026-04-30 19:22 | 33.49707 | -114.25520 | 27485 ft | 422 kts | 104° |
| 2026-04-30 19:23 | 33.47712 | -114.15424 | 25943 ft | 409 kts | 104° |
| 2026-04-30 19:24 | 33.46405 | -114.08845 | 24937 ft | 403 kts | 104° |
| 2026-04-30 19:24 | 33.45767 | -114.05652 | 24661 ft | 394 kts | 104° |
| 2026-04-30 19:24 | 33.44497 | -113.99319 | 24203 ft | 392 kts | 104° |
| 2026-04-30 19:25 | 33.42559 | -113.89692 | 23363 ft | 396 kts | 104° |
| 2026-04-30 19:26 | 33.41280 | -113.83327 | 22672 ft | 390 kts | 104° |
| 2026-04-30 19:26 | 33.40017 | -113.77058 | 22015 ft | 385 kts | 104° |
| 2026-04-30 19:26 | 33.39397 | -113.73989 | 21703 ft | 382 kts | 104° |
| 2026-04-30 19:27 | 33.38155 | -113.67830 | 21095 ft | 378 kts | 106° |
| 2026-04-30 19:27 | 33.36915 | -113.61735 | 20477 ft | 376 kts | 106° |
| 2026-04-30 19:28 | 33.36297 | -113.58695 | 20171 ft | 375 kts | 105° |
| 2026-04-30 19:28 | 33.35063 | -113.52633 | 19553 ft | 374 kts | 105° |
| 2026-04-30 19:29 | 33.33833 | -113.46611 | 18940 ft | 371 kts | 105° |
| 2026-04-30 19:29 | 33.33261 | -113.43647 | 18580 ft | 371 kts | 104° |
| 2026-04-30 19:30 | 33.31742 | -113.34651 | 17618 ft | 362 kts | 103° |
| 2026-04-30 19:30 | 33.30743 | -113.28810 | 17002 ft | 355 kts | 103° |
| 2026-04-30 19:31 | 33.29747 | -113.23077 | 16432 ft | 350 kts | 103° |
| 2026-04-30 19:31 | 33.29300 | -113.20216 | 16123 ft | 348 kts | 101° |
| 2026-04-30 19:31 | 33.28514 | -113.14556 | 15572 ft | 347 kts | 101° |
| 2026-04-30 19:32 | 33.28111 | -113.11698 | 15301 ft | 349 kts | 101° |
| 2026-04-30 19:32 | 33.27700 | -113.08836 | 14992 ft | 351 kts | 101° |
| 2026-04-30 19:32 | 33.27361 | -113.05958 | 14685 ft | 346 kts | 94° |
| 2026-04-30 19:32 | 33.27361 | -113.03102 | 14364 ft | 340 kts | 88° |
| 2026-04-30 19:33 | 33.27481 | -113.00307 | 14086 ft | 333 kts | 87° |
| 2026-04-30 19:33 | 33.27607 | -112.97557 | 13872 ft | 331 kts | 88° |
| 2026-04-30 19:33 | 33.27715 | -112.94804 | 13576 ft | 332 kts | 88° |
| 2026-04-30 19:33 | 33.27804 | -112.92038 | 13240 ft | 334 kts | 88° |
| 2026-04-30 19:34 | 33.27879 | -112.89273 | 12925 ft | 333 kts | 89° |
| 2026-04-30 19:34 | 33.27947 | -112.86510 | 12589 ft | 332 kts | 89° |
| 2026-04-30 19:34 | 33.28369 | -112.81132 | 11934 ft | 320 kts | 69° |
| 2026-04-30 19:35 | 33.29236 | -112.78764 | 11683 ft | 312 kts | 65° |
| 2026-04-30 19:35 | 33.30153 | -112.76435 | 11376 ft | 308 kts | 65° |
| 2026-04-30 19:35 | 33.31047 | -112.74128 | 11090 ft | 303 kts | 65° |
| 2026-04-30 19:35 | 33.31906 | -112.71857 | 10809 ft | 298 kts | 65° |
| 2026-04-30 19:36 | 33.32750 | -112.69605 | 10538 ft | 294 kts | 65° |
| 2026-04-30 19:36 | 33.33598 | -112.67368 | 10259 ft | 296 kts | 65° |
| 2026-04-30 19:36 | 33.35326 | -112.62856 | 9691 ft | 298 kts | 65° |
| 2026-04-30 19:37 | 33.36184 | -112.60611 | 9382 ft | 296 kts | 65° |
| 2026-04-30 19:37 | 33.37035 | -112.58382 | 9072 ft | 293 kts | 65° |
| 2026-04-30 19:37 | 33.37873 | -112.56179 | 8799 ft | 290 kts | 65° |
| 2026-04-30 19:37 | 33.38709 | -112.53985 | 8498 ft | 288 kts | 65° |
| 2026-04-30 19:38 | 33.39533 | -112.51824 | 8233 ft | 284 kts | 65° |
| 2026-04-30 19:38 | 33.40346 | -112.49677 | 7967 ft | 282 kts | 66° |
| 2026-04-30 19:38 | 33.41112 | -112.47524 | 7687 ft | 280 kts | 67° |
| 2026-04-30 19:38 | 33.41864 | -112.45369 | 7411 ft | 279 kts | 67° |
| 2026-04-30 19:39 | 33.42596 | -112.43257 | 7146 ft | 278 kts | 69° |
| 2026-04-30 19:39 | 33.42909 | -112.40979 | 6818 ft | 279 kts | 90° |
| 2026-04-30 19:39 | 33.42891 | -112.38656 | 6514 ft | 280 kts | 90° |
| 2026-04-30 19:39 | 33.42880 | -112.36327 | 6184 ft | 281 kts | 90° |
| 2026-04-30 19:40 | 33.42872 | -112.33993 | 5845 ft | 280 kts | 90° |
| 2026-04-30 19:40 | 33.42897 | -112.31695 | 5645 ft | 268 kts | 89° |
| 2026-04-30 19:40 | 33.42930 | -112.29509 | 5345 ft | 258 kts | 90° |
| 2026-04-30 19:40 | 33.42934 | -112.27404 | 5033 ft | 249 kts | 91° |
| 2026-04-30 19:41 | 33.42928 | -112.25389 | 4741 ft | 235 kts | 91° |
| 2026-04-30 19:41 | 33.42921 | -112.23482 | 4409 ft | 223 kts | 91° |
| 2026-04-30 19:41 | 33.42915 | -112.21670 | 4133 ft | 213 kts | 91° |
| 2026-04-30 19:41 | 33.42912 | -112.19942 | 3848 ft | 207 kts | 91° |
| 2026-04-30 19:42 | 33.42907 | -112.18263 | 3582 ft | 198 kts | 91° |
| 2026-04-30 19:42 | 33.42904 | -112.16660 | 3346 ft | 185 kts | 91° |
| 2026-04-30 19:42 | 33.42902 | -112.15175 | 3109 ft | 172 kts | 91° |
| 2026-04-30 19:42 | 33.42900 | -112.13801 | 2907 ft | 159 kts | 91° |
| 2026-04-30 19:43 | 33.42898 | -112.12511 | 2713 ft | 152 kts | 91° |
| 2026-04-30 19:43 | 33.42895 | -112.11261 | 2535 ft | 154 kts | 92° |
| 2026-04-30 19:43 | 33.42893 | -112.10000 | 2350 ft | 152 kts | 93° |
| 2026-04-30 19:44 | 33.42891 | -112.07443 | 1953 ft | 152 kts | 90° |
| 2026-04-30 19:44 | 33.42892 | -112.06176 | 1733 ft | 152 kts | 91° |
| 2026-04-30 19:44 | 33.42883 | -112.04912 | 1522 ft | 151 kts | 91° |
| 2026-04-30 19:44 | 33.42887 | -112.03656 | 1309 ft | 151 kts | 90° |
| 2026-04-30 19:45 | 33.42888 | -112.02429 | 1136 ft | 143 kts | 90° |
| 2026-04-30 19:45 | 33.42885 | -112.01356 | 1128 ft | 104 kts | 90° |
| 2026-04-30 19:45 | 33.42885 | -112.00725 | 1126 ft | 47 kts | 90° |
| 2026-04-30 19:45 | 33.42916 | -112.00514 | 1121 ft | 11 kts | 51° |
| 2026-04-30 19:46 | 33.42962 | -112.00446 | 1124 ft | 10 kts | 53° |
| 2026-04-30 19:46 | 33.42994 | -112.00370 | 1126 ft | 10 kts | 78° |
| 2026-04-30 19:46 | 33.43045 | -112.00323 | 1120 ft | 10 kts | 1° |
| 2026-04-30 19:46 | 33.43132 | -112.00322 | 1133 ft | 15 kts | 1° |
| 2026-04-30 19:47 | 33.43209 | -112.00229 | 1127 ft | 19 kts | 72° |
| 2026-04-30 19:47 | 33.43214 | -112.00125 | 1122 ft | 17 kts | 91° |
| 2026-04-30 19:47 | 33.43331 | -112.00040 | 1115 ft | 13 kts | 2° |
| 2026-04-30 19:47 | 33.43395 | -112.00044 | 1115 ft | 7 kts | 346° |
| 2026-04-30 19:48 | 33.43424 | -112.00088 | 1123 ft | 7 kts | 269° |
| 2026-04-30 19:48 | 33.43424 | -112.00140 | 1123 ft | 2 kts | 270° |
| 2026-04-30 19:48 | 33.43424 | -112.00156 | 1123 ft | 0 kts | 269° |